Time;durP1;ratioP1;P1;durP2;ratioP2;P2;SDS_P1;SDS_P2;PMS_P1;PMS_P2;Temp;Humidity;BMP_temperature;BMP_pressure;BME280_temperature;BME280_humidity;BME280_pressure;Samples;Min_cycle;Max_cycle;Signal;HPM_P1;HPM_P2
2022/12/09 00:02:07;;;;;;;28.98;19.58;;;1.70;99.90;;;;;;5010793;28;20242;-72
2022/12/09 00:04:33;;;;;;;26.63;20.08;;;1.70;99.90;;;;;;5002729;28;20523;-71
2022/12/09 00:06:58;;;;;;;27.70;19.75;;;1.60;99.90;;;;;;5002646;28;20185;-71
2022/12/09 00:09:24;;;;;;;29.25;21.38;;;1.50;99.90;;;;;;5010665;28;20192;-71
2022/12/09 00:11:51;;;;;;;24.20;18.35;;;1.50;99.90;;;;;;5004300;28;20672;-70
2022/12/09 00:14:17;;;;;;;29.10;21.80;;;1.60;99.90;;;;;;5001748;28;20177;-71
2022/12/09 00:16:43;;;;;;;27.85;19.30;;;1.60;99.90;;;;;;5004022;28;20555;-71
2022/12/09 00:19:08;;;;;;;31.50;20.55;;;1.60;99.90;;;;;;5005190;28;20205;-71
2022/12/09 00:21:34;;;;;;;28.05;19.52;;;1.50;99.90;;;;;;5002402;28;20225;-70
2022/12/09 00:24:05;;;;;;;24.33;18.55;;;1.60;99.90;;;;;;5005976;28;20185;-71
2022/12/09 00:26:32;;;;;;;28.40;20.05;;;1.70;99.90;;;;;;5005113;28;20186;-71
2022/12/09 00:28:58;;;;;;;27.63;19.48;;;1.60;99.90;;;;;;5006580;28;20223;-71
2022/12/09 00:31:31;;;;;;;30.23;19.92;;;1.60;99.90;;;;;;5003065;28;20351;-71
2022/12/09 00:33:59;;;;;;;25.77;19.38;;;1.60;99.90;;;;;;5004993;28;20184;-71
2022/12/09 00:36:26;;;;;;;28.20;19.45;;;1.70;99.90;;;;;;5009190;28;20196;-72
2022/12/09 00:38:54;;;;;;;27.83;19.38;;;1.70;99.90;;;;;;5009004;28;20201;-71
2022/12/09 00:41:19;;;;;;;29.23;20.25;;;1.70;99.90;;;;;;5009541;28;20186;-71
2022/12/09 00:43:45;;;;;;;28.85;20.60;;;1.70;99.90;;;;;;5009225;28;20193;-70
2022/12/09 00:46:12;;;;;;;23.75;18.88;;;1.70;99.90;;;;;;5012621;28;20651;-71
2022/12/09 00:48:38;;;;;;;28.88;19.27;;;1.70;99.90;;;;;;5007098;28;20251;-71
2022/12/09 00:51:05;;;;;;;25.95;19.77;;;1.80;99.90;;;;;;5003892;28;20201;-71
2022/12/09 00:53:31;;;;;;;27.13;19.55;;;1.80;99.90;;;;;;5010561;28;20268;-72
2022/12/09 00:55:56;;;;;;;26.17;19.95;;;1.90;99.90;;;;;;5009902;28;20273;-71
2022/12/09 00:58:22;;;;;;;28.48;19.92;;;1.90;99.90;;;;;;5011966;28;20206;-71
2022/12/09 01:00:48;;;;;;;25.92;17.75;;;1.90;99.90;;;;;;5013552;28;20185;-70
2022/12/09 01:03:16;;;;;;;26.55;18.67;;;1.90;99.90;;;;;;5007672;28;20185;-71
2022/12/09 01:05:42;;;;;;;30.48;19.92;;;2.00;99.90;;;;;;5007315;28;20900;-71
2022/12/09 01:08:09;;;;;;;28.35;21.10;;;1.90;99.90;;;;;;5014094;28;20221;-71
2022/12/09 01:10:36;;;;;;;26.38;19.67;;;1.80;99.90;;;;;;5010200;28;20174;-71
2022/12/09 01:13:02;;;;;;;23.05;19.75;;;1.80;99.90;;;;;;5011330;28;20550;-70
2022/12/09 01:15:29;;;;;;;27.05;19.70;;;1.80;99.90;;;;;;5005936;28;20174;-71
2022/12/09 01:17:55;;;;;;;26.90;19.20;;;1.90;99.90;;;;;;5007401;28;20249;-70
2022/12/09 01:20:20;;;;;;;28.38;20.25;;;1.80;99.90;;;;;;5010210;28;20185;-70
2022/12/09 01:22:46;;;;;;;24.92;18.83;;;1.80;99.90;;;;;;5007863;28;20303;-69
2022/12/09 01:25:12;;;;;;;28.95;19.83;;;1.80;99.90;;;;;;5009921;28;20630;-70
2022/12/09 01:27:38;;;;;;;27.42;19.88;;;1.90;99.90;;;;;;5011082;28;20289;-70
2022/12/09 01:30:06;;;;;;;30.30;20.17;;;1.90;99.90;;;;;;5002608;28;20209;-70
2022/12/09 01:32:32;;;;;;;29.52;20.90;;;1.80;99.90;;;;;;5009777;28;20267;-70
2022/12/09 01:34:57;;;;;;;28.80;20.27;;;1.70;99.90;;;;;;5006842;28;20668;-71
2022/12/09 01:37:23;;;;;;;28.00;20.23;;;1.50;99.90;;;;;;5007192;28;20235;-71
2022/12/09 01:39:48;;;;;;;28.40;21.30;;;1.40;99.90;;;;;;5002552;28;20656;-71
2022/12/09 01:42:22;;;;;;;27.52;20.08;;;1.40;99.90;;;;;;5007889;28;20194;-71
2022/12/09 01:45:19;;;;;;;25.38;18.17;;;1.30;99.90;;;;;;5011716;28;20189;-71
2022/12/09 01:47:46;;;;;;;26.73;19.98;;;1.30;99.90;;;;;;5008430;28;20193;-71
2022/12/09 01:50:12;;;;;;;26.08;19.88;;;1.40;99.90;;;;;;4997768;28;20561;-71
2022/12/09 01:52:38;;;;;;;25.27;17.65;;;1.40;99.90;;;;;;5001939;28;20202;-71
2022/12/09 01:55:05;;;;;;;24.60;18.48;;;1.40;99.90;;;;;;5001681;28;20178;-71
2022/12/09 01:57:31;;;;;;;26.10;17.15;;;1.40;99.90;;;;;;5009092;28;20284;-71
2022/12/09 01:59:56;;;;;;;24.58;18.02;;;1.50;99.90;;;;;;4998273;28;20264;-71
2022/12/09 02:02:26;;;;;;;26.67;19.65;;;1.40;99.90;;;;;;5000723;28;20196;-71
2022/12/09 02:04:52;;;;;;;24.80;18.95;;;1.40;99.90;;;;;;5003574;28;20181;-71
2022/12/09 02:07:18;;;;;;;27.38;19.48;;;1.40;99.90;;;;;;5000521;28;20222;-71
2022/12/09 02:09:44;;;;;;;25.10;19.52;;;1.40;99.90;;;;;;5000645;28;20236;-73
2022/12/09 02:12:13;;;;;;;28.38;20.02;;;1.30;99.90;;;;;;4997864;28;20696;-72
2022/12/09 02:14:40;;;;;;;28.45;20.08;;;1.20;99.90;;;;;;4997871;28;20543;-70
2022/12/09 02:17:25;;;;;;;27.67;19.55;;;1.10;99.90;;;;;;5000604;28;20612;-72
2022/12/09 02:20:27;;;;;;;25.60;19.73;;;1.10;99.90;;;;;;5004647;28;20173;-71
2022/12/09 02:23:08;;;;;;;24.27;18.23;;;1.10;99.90;;;;;;4997782;28;20197;-72
2022/12/09 02:25:51;;;;;;;28.73;20.23;;;1.10;99.90;;;;;;5007919;28;20210;-71
2022/12/09 02:28:25;;;;;;;29.30;19.25;;;1.00;99.90;;;;;;5007042;28;20567;-71
2022/12/09 02:31:01;;;;;;;27.83;19.88;;;1.00;99.90;;;;;;5004710;28;20200;-70
2022/12/09 02:33:54;;;;;;;26.90;19.73;;;1.00;99.90;;;;;;5023938;28;20643;-70
2022/12/09 02:36:26;;;;;;;28.75;20.08;;;0.90;99.90;;;;;;5004711;28;20248;-71
2022/12/09 02:38:52;;;;;;;29.37;18.97;;;0.80;99.90;;;;;;5005392;28;20291;-71
2022/12/09 02:41:29;;;;;;;27.30;20.17;;;0.90;99.90;;;;;;5008748;28;20280;-70
2022/12/09 02:44:00;;;;;;;24.38;18.88;;;0.90;99.90;;;;;;5010027;28;20285;-72
2022/12/09 02:46:27;;;;;;;28.67;21.20;;;0.90;99.90;;;;;;5010129;28;20197;-72
2022/12/09 02:48:55;;;;;;;24.98;17.30;;;0.90;99.90;;;;;;5006972;28;20224;-72
2022/12/09 02:51:23;;;;;;;29.83;19.65;;;0.90;99.90;;;;;;5004080;28;20219;-71
2022/12/09 02:53:52;;;;;;;29.10;20.15;;;1.00;99.90;;;;;;5006924;28;20182;-71
2022/12/09 02:56:20;;;;;;;28.97;19.03;;;1.00;99.90;;;;;;5005435;28;20192;-70
2022/12/09 02:58:47;;;;;;;27.35;19.50;;;1.00;99.90;;;;;;5008120;28;20204;-70
2022/12/09 03:01:21;;;;;;;24.47;18.90;;;1.00;99.90;;;;;;5008363;28;20212;-70
2022/12/09 03:03:47;;;;;;;26.87;18.47;;;1.00;99.90;;;;;;5008828;28;20184;-72
2022/12/09 03:06:16;;;;;;;26.85;19.80;;;1.10;99.90;;;;;;5010984;28;20240;-72
2022/12/09 03:08:46;;;;;;;25.03;18.43;;;1.10;99.90;;;;;;5007493;28;20888;-71
2022/12/09 03:11:18;;;;;;;25.10;17.98;;;1.10;99.90;;;;;;5007226;28;20339;-72
2022/12/09 03:13:55;;;;;;;25.58;18.27;;;1.10;99.90;;;;;;5001999;28;20185;-70
2022/12/09 03:16:33;;;;;;;22.95;18.05;;;1.00;99.90;;;;;;5006298;28;20295;-71
2022/12/09 03:19:09;;;;;;;25.55;18.48;;;1.00;99.90;;;;;;5005045;28;20206;-70
2022/12/09 03:21:39;;;;;;;24.15;18.67;;;1.00;99.90;;;;;;4998500;28;20188;-70
2022/12/09 03:24:09;;;;;;;26.40;18.53;;;0.90;99.90;;;;;;5007267;28;20181;-70
2022/12/09 03:26:37;;;;;;;26.35;18.52;;;0.90;99.90;;;;;;5006584;28;20220;-71
2022/12/09 03:29:07;;;;;;;28.87;18.97;;;0.90;99.90;;;;;;5005317;28;20323;-70
2022/12/09 03:31:35;;;;;;;21.85;16.58;;;0.80;99.90;;;;;;5013123;28;20296;-71
2022/12/09 03:34:04;;;;;;;25.55;18.52;;;0.80;99.90;;;;;;5013633;28;20184;-70
2022/12/09 03:36:35;;;;;;;23.50;17.23;;;0.80;99.90;;;;;;5000784;28;20181;-71
2022/12/09 03:39:03;;;;;;;23.38;18.08;;;0.70;99.90;;;;;;4994914;28;20205;-71
2022/12/09 03:41:32;;;;;;;25.53;18.57;;;0.70;99.90;;;;;;5006689;28;20728;-71
2022/12/09 03:44:04;;;;;;;25.07;17.47;;;0.60;99.90;;;;;;5003354;28;20776;-71
2022/12/09 03:46:30;;;;;;;25.23;18.77;;;0.60;99.90;;;;;;4997135;28;20211;-72
2022/12/09 03:48:56;;;;;;;22.08;18.02;;;0.60;99.90;;;;;;5004093;28;20212;-70
2022/12/09 03:51:44;;;;;;;24.55;17.95;;;0.60;99.90;;;;;;4995399;28;20308;-72
2022/12/09 03:54:20;;;;;;;23.80;18.00;;;0.60;99.90;;;;;;4995402;28;20265;-70
2022/12/09 03:56:49;;;;;;;23.48;18.27;;;0.60;99.90;;;;;;4996690;28;20267;-71
2022/12/09 03:59:16;;;;;;;24.10;18.50;;;0.70;99.90;;;;;;4995028;28;20266;-70
2022/12/09 04:01:43;;;;;;;21.87;17.17;;;0.70;99.90;;;;;;5001485;28;20199;-71
2022/12/09 04:04:09;;;;;;;23.27;18.20;;;0.80;99.90;;;;;;4996724;28;20177;-71
2022/12/09 04:06:36;;;;;;;26.13;19.10;;;0.80;99.90;;;;;;5001529;28;20193;-71
2022/12/09 04:09:03;;;;;;;25.50;18.33;;;0.80;99.90;;;;;;5011281;28;20698;-71
2022/12/09 04:11:29;;;;;;;22.92;17.67;;;0.80;99.90;;;;;;5014594;28;20671;-70
2022/12/09 04:13:55;;;;;;;21.73;16.80;;;0.80;99.90;;;;;;5006967;28;20215;-72
2022/12/09 04:16:20;;;;;;;20.13;16.42;;;0.90;99.90;;;;;;5006735;28;20209;-72
2022/12/09 04:18:46;;;;;;;26.73;19.67;;;0.90;99.90;;;;;;4997366;28;20205;-70
2022/12/09 04:21:12;;;;;;;22.17;18.20;;;0.90;99.90;;;;;;5004291;28;20189;-73
2022/12/09 04:23:38;;;;;;;21.15;18.65;;;0.90;99.90;;;;;;5005023;28;20243;-70
2022/12/09 04:26:04;;;;;;;25.87;19.93;;;0.90;99.90;;;;;;5005858;28;20185;-70
2022/12/09 04:28:29;;;;;;;24.27;18.27;;;0.80;99.90;;;;;;4997303;28;20217;-71
2022/12/09 04:30:55;;;;;;;26.67;19.93;;;0.80;99.90;;;;;;5002332;28;20240;-71
2022/12/09 04:33:21;;;;;;;25.73;19.70;;;0.80;99.90;;;;;;4999437;28;20245;-70
2022/12/09 04:35:46;;;;;;;25.13;19.43;;;0.70;99.90;;;;;;5001486;28;20193;-71
2022/12/09 04:38:12;;;;;;;28.90;19.80;;;0.70;99.90;;;;;;5004072;28;20204;-70
2022/12/09 04:40:38;;;;;;;25.23;18.33;;;0.70;99.90;;;;;;5005516;28;20181;-71
2022/12/09 04:43:03;;;;;;;25.52;18.63;;;0.80;99.90;;;;;;5009432;28;20227;-70
2022/12/09 04:45:29;;;;;;;25.50;18.90;;;0.80;99.90;;;;;;5008814;28;20185;-71
2022/12/09 04:47:56;;;;;;;22.27;17.50;;;0.70;99.90;;;;;;5001133;28;20288;-71
2022/12/09 04:50:22;;;;;;;28.63;19.00;;;0.70;99.90;;;;;;5005058;28;20185;-71
2022/12/09 04:52:47;;;;;;;24.33;18.53;;;0.70;99.90;;;;;;5007454;28;20205;-71
2022/12/09 04:55:13;;;;;;;25.13;18.93;;;0.70;99.90;;;;;;5007546;28;20178;-71
2022/12/09 04:57:39;;;;;;;22.90;16.77;;;0.70;99.90;;;;;;4999413;28;20198;-71
2022/12/09 05:00:06;;;;;;;23.47;18.17;;;0.70;99.90;;;;;;5002900;28;20178;-71
2022/12/09 05:02:31;;;;;;;26.83;18.33;;;0.70;99.90;;;;;;5003559;28;20182;-71
2022/12/09 05:05:00;;;;;;;25.73;18.20;;;0.70;99.90;;;;;;5003908;28;20193;-71
2022/12/09 05:07:30;;;;;;;25.37;18.10;;;0.70;99.90;;;;;;4999991;28;20221;-71
2022/12/09 05:09:56;;;;;;;25.43;19.17;;;0.70;99.90;;;;;;5001576;28;20190;-71
2022/12/09 05:12:23;;;;;;;24.43;17.43;;;0.60;99.90;;;;;;5010651;28;20204;-70
2022/12/09 05:14:48;;;;;;;26.40;19.57;;;0.50;99.90;;;;;;5004037;28;20272;-70
2022/12/09 05:17:14;;;;;;;23.23;18.02;;;0.50;99.90;;;;;;5003389;28;20286;-70
2022/12/09 05:19:40;;;;;;;24.03;17.93;;;0.50;99.90;;;;;;5002318;28;20204;-71
2022/12/09 05:22:05;;;;;;;27.37;18.70;;;0.60;99.90;;;;;;5004540;28;20193;-71
2022/12/09 05:24:31;;;;;;;24.20;18.37;;;0.50;99.90;;;;;;5010472;28;20185;-71
2022/12/09 05:26:56;;;;;;;25.27;18.67;;;0.60;99.90;;;;;;5007222;28;20177;-72
2022/12/09 05:29:22;;;;;;;22.47;17.10;;;0.70;99.90;;;;;;5007816;28;20274;-70
2022/12/09 05:31:50;;;;;;;24.67;18.43;;;0.70;99.90;;;;;;5007181;28;20233;-70
2022/12/09 05:34:16;;;;;;;19.83;16.00;;;0.70;99.90;;;;;;5010971;28;20183;-71
2022/12/09 05:36:41;;;;;;;26.40;18.35;;;0.80;99.90;;;;;;5013594;28;20632;-70
2022/12/09 05:39:07;;;;;;;23.75;17.42;;;0.80;99.90;;;;;;5009475;28;20220;-70
2022/12/09 05:41:33;;;;;;;25.00;17.90;;;0.80;99.90;;;;;;5003414;28;20495;-71
2022/12/09 05:43:58;;;;;;;23.58;17.05;;;0.90;99.90;;;;;;5003999;28;20185;-70
2022/12/09 05:46:24;;;;;;;23.43;17.47;;;1.00;99.90;;;;;;5006677;28;20272;-70
2022/12/09 05:48:49;;;;;;;23.88;17.75;;;1.00;99.90;;;;;;5011201;28;20287;-70
2022/12/09 05:51:26;;;;;;;23.00;17.80;;;1.10;99.90;;;;;;5011246;28;20208;-71
2022/12/09 05:53:53;;;;;;;22.58;18.08;;;1.20;99.90;;;;;;5005621;28;20186;-70
2022/12/09 05:56:20;;;;;;;21.95;16.50;;;1.00;99.90;;;;;;5006605;28;20260;-70
2022/12/09 05:58:46;;;;;;;25.63;18.50;;;1.00;99.90;;;;;;5010878;28;20194;-70
2022/12/09 06:01:12;;;;;;;24.53;18.47;;;1.00;99.90;;;;;;5004012;28;20185;-69
2022/12/09 06:03:38;;;;;;;29.75;21.55;;;0.90;99.90;;;;;;5008038;28;20553;-70
2022/12/09 06:06:12;;;;;;;29.23;21.20;;;1.00;99.90;;;;;;5009882;28;20264;-70
2022/12/09 06:08:39;;;;;;;30.83;19.63;;;1.00;99.90;;;;;;5005412;28;20216;-71
2022/12/09 06:11:11;;;;;;;28.23;20.13;;;0.90;99.90;;;;;;5008498;28;20680;-71
2022/12/09 06:13:37;;;;;;;31.13;19.05;;;0.90;99.90;;;;;;5009039;28;20182;-71
2022/12/09 06:16:04;;;;;;;32.88;20.33;;;0.90;99.90;;;;;;5008810;28;20211;-71
2022/12/09 06:18:30;;;;;;;29.35;20.63;;;0.90;99.90;;;;;;5007317;28;20189;-70
2022/12/09 06:20:55;;;;;;;26.63;18.85;;;0.90;99.90;;;;;;5008952;28;20559;-71
2022/12/09 06:23:21;;;;;;;25.20;19.25;;;0.90;99.90;;;;;;5010245;28;20209;-71
2022/12/09 06:25:46;;;;;;;28.40;19.05;;;0.90;99.90;;;;;;5005033;28;20645;-72
2022/12/09 06:28:12;;;;;;;29.43;20.07;;;0.90;99.90;;;;;;5007554;28;20216;-71
2022/12/09 06:30:38;;;;;;;29.83;20.30;;;0.80;99.90;;;;;;5007163;28;20176;-71
2022/12/09 06:33:04;;;;;;;29.40;19.37;;;0.70;99.90;;;;;;5003021;28;20223;-71
2022/12/09 06:35:30;;;;;;;28.50;20.10;;;0.70;99.90;;;;;;5008774;28;20272;-71
2022/12/09 06:37:55;;;;;;;30.13;20.27;;;0.60;99.90;;;;;;5007720;28;20288;-71
2022/12/09 06:40:21;;;;;;;32.43;19.73;;;0.60;99.90;;;;;;5005928;28;20177;-70
2022/12/09 06:42:49;;;;;;;28.87;20.43;;;0.50;99.90;;;;;;5001285;28;20240;-71
2022/12/09 06:45:15;;;;;;;27.67;19.70;;;0.50;99.90;;;;;;4998850;28;20193;-71
2022/12/09 06:47:41;;;;;;;28.00;19.13;;;0.50;99.90;;;;;;4998231;28;20277;-70
2022/12/09 06:50:08;;;;;;;30.93;21.60;;;0.40;99.90;;;;;;5003201;28;20538;-73
2022/12/09 06:52:34;;;;;;;29.50;20.83;;;0.50;99.90;;;;;;5011060;28;20592;-73
2022/12/09 06:55:00;;;;;;;35.60;20.87;;;0.50;99.90;;;;;;5010376;28;20181;-72
2022/12/09 06:57:25;;;;;;;29.43;19.90;;;0.50;99.90;;;;;;5004751;28;20572;-72
2022/12/09 06:59:51;;;;;;;30.33;20.40;;;0.50;99.90;;;;;;5008250;28;20181;-73
2022/12/09 07:02:16;;;;;;;27.90;20.07;;;0.50;99.90;;;;;;5007409;28;20188;-73
2022/12/09 07:04:42;;;;;;;24.80;18.57;;;0.70;99.90;;;;;;5001877;28;20193;-73
2022/12/09 07:07:10;;;;;;;30.13;20.23;;;0.70;99.90;;;;;;5003293;28;20672;-74
2022/12/09 07:09:35;;;;;;;26.80;19.97;;;0.70;99.90;;;;;;5006268;28;20259;-73
2022/12/09 07:12:01;;;;;;;26.67;18.97;;;0.80;99.90;;;;;;5004549;28;20237;-73
2022/12/09 07:14:27;;;;;;;31.57;20.00;;;0.80;99.90;;;;;;5003448;28;20692;-73
2022/12/09 07:16:52;;;;;;;26.87;18.50;;;0.80;99.90;;;;;;5005447;28;20189;-73
2022/12/09 07:19:21;;;;;;;26.30;17.88;;;0.80;99.90;;;;;;5003490;28;20180;-73
2022/12/09 07:21:47;;;;;;;23.60;17.73;;;0.80;99.90;;;;;;5000108;28;20672;-73
2022/12/09 07:24:14;;;;;;;26.70;18.53;;;0.80;99.90;;;;;;5008694;28;20247;-73
2022/12/09 07:26:40;;;;;;;25.23;17.87;;;0.90;99.90;;;;;;5006109;28;20185;-72
2022/12/09 07:29:06;;;;;;;26.43;19.77;;;0.80;99.90;;;;;;5004520;28;20284;-73
2022/12/09 07:31:33;;;;;;;26.37;17.77;;;0.80;99.90;;;;;;4996765;28;20213;-74
2022/12/09 07:33:59;;;;;;;21.98;17.10;;;0.80;99.90;;;;;;4999611;28;20181;-75
2022/12/09 07:36:29;;;;;;;25.80;17.33;;;0.90;99.90;;;;;;5006870;28;20636;-73
2022/12/09 07:39:01;;;;;;;26.23;17.87;;;1.00;99.90;;;;;;4996321;28;20205;-74
2022/12/09 07:41:26;;;;;;;24.30;17.73;;;1.10;99.90;;;;;;4997850;28;20204;-74
2022/12/09 07:43:52;;;;;;;24.73;17.30;;;1.10;99.90;;;;;;5000127;28;20218;-73
2022/12/09 07:46:19;;;;;;;22.67;17.17;;;1.20;99.90;;;;;;4997817;28;20272;-74
2022/12/09 07:48:45;;;;;;;22.58;17.77;;;1.20;99.90;;;;;;4998185;28;20209;-74
2022/12/09 07:51:12;;;;;;;21.53;16.33;;;1.20;99.90;;;;;;5005411;28;20210;-73
2022/12/09 07:53:38;;;;;;;21.60;16.38;;;1.30;99.90;;;;;;4996174;28;20182;-74
2022/12/09 07:56:06;;;;;;;20.88;14.95;;;1.40;99.90;;;;;;4997847;28;20191;-74
2022/12/09 07:58:32;;;;;;;18.53;15.00;;;1.50;99.90;;;;;;4997514;28;22187;-74
2022/12/09 08:01:09;;;;;;;22.13;16.33;;;1.60;99.90;;;;;;5001484;28;20847;-73
2022/12/09 08:03:35;;;;;;;18.17;14.20;;;1.70;99.90;;;;;;4996837;28;20195;-73
2022/12/09 08:06:01;;;;;;;18.05;13.98;;;1.80;99.90;;;;;;4995210;28;20178;-74
2022/12/09 08:08:27;;;;;;;18.35;14.68;;;1.90;99.90;;;;;;4997770;28;20275;-73
2022/12/09 08:10:53;;;;;;;21.83;14.02;;;1.90;99.90;;;;;;4998488;28;20185;-75
2022/12/09 08:13:19;;;;;;;18.35;13.68;;;2.10;99.90;;;;;;4995488;28;20202;-75
2022/12/09 08:15:45;;;;;;;17.85;14.80;;;2.20;99.90;;;;;;5011990;28;20173;-74
2022/12/09 08:18:11;;;;;;;19.02;14.27;;;2.10;99.90;;;;;;5011490;28;20291;-71
2022/12/09 08:20:37;;;;;;;15.48;13.00;;;2.10;99.90;;;;;;5005687;28;20177;-72
2022/12/09 08:23:02;;;;;;;16.90;13.30;;;2.30;99.90;;;;;;5006222;28;20184;-74
2022/12/09 08:25:28;;;;;;;21.70;13.18;;;2.60;99.90;;;;;;5004199;28;20340;-72
2022/12/09 08:27:53;;;;;;;15.20;12.32;;;2.70;99.90;;;;;;5008259;28;20207;-74
2022/12/09 08:30:19;;;;;;;15.85;13.00;;;2.90;99.90;;;;;;5006024;28;20263;-75
2022/12/09 08:32:46;;;;;;;16.23;12.07;;;2.90;99.90;;;;;;5008665;28;20216;-75
2022/12/09 08:35:13;;;;;;;15.18;12.25;;;3.10;99.90;;;;;;5003045;28;20177;-74
2022/12/09 08:37:41;;;;;;;12.10;10.77;;;3.20;99.90;;;;;;5004266;28;20261;-74
2022/12/09 08:40:08;;;;;;;13.63;11.82;;;3.30;99.90;;;;;;4998647;28;20209;-74
2022/12/09 08:42:34;;;;;;;13.05;10.32;;;3.30;99.90;;;;;;4999909;28;20197;-75
2022/12/09 08:44:59;;;;;;;16.17;11.88;;;3.40;99.90;;;;;;5010005;28;20190;-74
2022/12/09 08:47:26;;;;;;;14.90;11.10;;;3.40;99.90;;;;;;5006777;28;20240;-74
2022/12/09 08:49:52;;;;;;;20.10;11.93;;;3.50;99.90;;;;;;5004943;28;20272;-74
2022/12/09 08:52:17;;;;;;;15.70;11.73;;;3.70;99.90;;;;;;4996536;28;20612;-74
2022/12/09 08:54:43;;;;;;;14.85;11.35;;;3.80;99.90;;;;;;4999677;28;20178;-74
2022/12/09 08:57:09;;;;;;;11.80;10.57;;;3.90;99.90;;;;;;5006487;28;20284;-73
2022/12/09 08:59:34;;;;;;;13.20;9.95;;;4.10;99.90;;;;;;5008972;28;20770;-74
2022/12/09 09:02:00;;;;;;;11.48;9.60;;;4.10;99.90;;;;;;5010565;28;20181;-75
2022/12/09 09:04:25;;;;;;;10.07;8.40;;;4.10;99.90;;;;;;5005436;28;20189;-74
2022/12/09 09:06:51;;;;;;;10.82;9.65;;;4.20;99.90;;;;;;5009555;28;20616;-74
2022/12/09 09:09:19;;;;;;;12.75;9.32;;;4.30;99.90;;;;;;5010749;28;20181;-73
2022/12/09 09:11:45;;;;;;;12.77;10.75;;;4.40;99.90;;;;;;5009519;28;20552;-73
2022/12/09 09:14:12;;;;;;;14.05;9.73;;;4.50;99.90;;;;;;5004516;28;20232;-73
2022/12/09 09:16:40;;;;;;;10.70;9.60;;;4.70;99.90;;;;;;5004073;28;20205;-73
2022/12/09 09:19:06;;;;;;;10.77;9.38;;;4.80;99.90;;;;;;5012703;28;20189;-74
2022/12/09 09:21:32;;;;;;;11.05;8.80;;;5.10;99.90;;;;;;5006870;28;20224;-73
2022/12/09 09:23:58;;;;;;;10.18;8.82;;;5.40;99.90;;;;;;5013670;28;20196;-78
2022/12/09 09:26:26;;;;;;;10.40;9.05;;;5.70;99.90;;;;;;5003251;28;20311;-74
2022/12/09 09:28:53;;;;;;;9.52;8.32;;;5.80;99.90;;;;;;5005757;28;20201;-75
2022/12/09 09:31:21;;;;;;;9.30;8.10;;;6.10;99.90;;;;;;5009795;28;20209;-74
2022/12/09 09:33:47;;;;;;;9.35;8.18;;;6.60;99.90;;;;;;5007680;28;20632;-77
2022/12/09 09:36:20;;;;;;;14.70;8.52;;;7.60;99.90;;;;;;5005779;28;20185;-77
2022/12/09 09:38:47;;;;;;;11.57;7.47;;;8.60;99.90;;;;;;5007773;28;20202;-76
2022/12/09 09:41:43;;;;;;;10.10;8.10;;;9.40;99.90;;;;;;5008911;28;20243;-76
2022/12/09 09:44:45;;;;;;;10.25;7.88;;;9.40;99.90;;;;;;5004373;28;20178;-76
2022/12/09 09:47:18;;;;;;;8.02;7.22;;;8.90;99.90;;;;;;5000789;28;20213;-75
2022/12/09 09:50:07;;;;;;;9.00;7.43;;;8.60;99.90;;;;;;5004242;28;20181;-76
2022/12/09 09:52:36;;;;;;;8.88;7.43;;;8.50;99.90;;;;;;5006787;28;20211;-76
2022/12/09 09:55:16;;;;;;;8.40;7.57;;;8.30;99.90;;;;;;5017861;28;20193;-76
2022/12/09 09:58:14;;;;;;;8.10;6.95;;;7.80;99.90;;;;;;5003257;28;20638;-75
2022/12/09 10:01:05;;;;;;;10.98;7.85;;;7.70;99.90;;;;;;5008522;28;20529;-80
2022/12/09 10:03:38;;;;;;;7.53;6.80;;;7.50;99.90;;;;;;5005160;28;20205;-76
2022/12/09 10:06:25;;;;;;;7.60;6.65;;;7.40;99.90;;;;;;5006363;28;20192;-76
2022/12/09 10:08:55;;;;;;;7.57;6.72;;;7.40;99.90;;;;;;5010429;28;20212;-76
2022/12/09 10:11:23;;;;;;;8.07;7.00;;;7.40;99.90;;;;;;5012059;28;20193;-75
2022/12/09 10:13:55;;;;;;;8.30;6.97;;;7.40;99.90;;;;;;5008928;28;20173;-76
2022/12/09 10:16:28;;;;;;;7.90;7.10;;;7.50;99.90;;;;;;5010682;28;20648;-76
2022/12/09 10:19:06;;;;;;;8.65;7.70;;;7.40;99.90;;;;;;5003049;28;20233;-77
2022/12/09 10:21:34;;;;;;;7.93;7.10;;;7.00;99.90;;;;;;5005356;28;20856;-77
2022/12/09 10:24:22;;;;;;;10.32;8.27;;;6.80;99.90;;;;;;5012255;28;20325;-77
2022/12/09 10:27:06;;;;;;;10.95;8.25;;;6.70;99.90;;;;;;5009597;28;20644;-77
2022/12/09 10:29:50;;;;;;;7.70;6.80;;;6.50;99.90;;;;;;4999110;28;20193;-76
2022/12/09 10:32:19;;;;;;;8.63;7.35;;;6.50;99.90;;;;;;5009536;28;20215;-76
2022/12/09 10:34:46;;;;;;;8.90;8.00;;;6.50;99.90;;;;;;5002622;28;20546;-76
2022/12/09 10:37:31;;;;;;;9.43;7.88;;;6.50;99.90;;;;;;5010832;28;20699;-77
2022/12/09 10:40:08;;;;;;;8.23;7.43;;;6.40;99.90;;;;;;4998361;28;20544;-77
2022/12/09 10:45:42;;;;;;;7.80;7.10;;;6.30;99.90;;;;;;5004714;28;20243;-77
2022/12/09 10:48:36;;;;;;;8.93;7.45;;;6.20;99.90;;;;;;5009709;28;20213;-78
2022/12/09 10:51:23;;;;;;;9.48;8.52;;;6.20;99.90;;;;;;4989940;28;20213;-76
2022/12/09 10:54:10;;;;;;;8.50;7.15;;;6.20;99.90;;;;;;5008229;28;20251;-76
2022/12/09 10:57:03;;;;;;;10.30;8.15;;;6.10;99.90;;;;;;5004595;28;20180;-76
2022/12/09 10:59:30;;;;;;;10.85;8.98;;;6.00;99.90;;;;;;4999242;28;20280;-75
2022/12/09 11:02:00;;;;;;;10.43;8.25;;;6.10;99.90;;;;;;5004997;28;20209;-76
2022/12/09 11:04:34;;;;;;;10.93;9.27;;;5.90;99.90;;;;;;5011083;28;20185;-76
2022/12/09 11:07:11;;;;;;;11.70;9.13;;;5.90;99.90;;;;;;5004260;28;20243;-76
2022/12/09 11:09:57;;;;;;;11.30;8.57;;;5.90;99.90;;;;;;5005000;28;20183;-76
2022/12/09 11:12:25;;;;;;;11.32;8.63;;;5.90;99.90;;;;;;4997072;28;20218;-74
2022/12/09 11:15:00;;;;;;;10.82;9.02;;;5.90;99.90;;;;;;5006563;28;20209;-75
2022/12/09 11:17:26;;;;;;;9.38;8.38;;;5.70;99.90;;;;;;5006922;28;20193;-75
2022/12/09 11:20:17;;;;;;;9.55;8.57;;;5.50;99.90;;;;;;5009142;28;20632;-74
2022/12/09 11:22:44;;;;;;;10.38;9.18;;;5.50;99.90;;;;;;5010446;28;20288;-75
2022/12/09 11:25:25;;;;;;;10.80;9.63;;;5.60;99.90;;;;;;5004867;28;20190;-75
2022/12/09 11:27:55;;;;;;;11.45;10.32;;;5.80;99.90;;;;;;5002051;28;20483;-73
2022/12/09 11:30:31;;;;;;;11.40;9.95;;;5.80;99.90;;;;;;5001050;28;20696;-76
2022/12/09 11:33:00;;;;;;;10.88;9.45;;;5.80;99.90;;;;;;5007404;28;20255;-75
2022/12/09 11:35:30;;;;;;;12.95;10.18;;;5.50;99.90;;;;;;5006942;28;20750;-75
2022/12/09 11:37:59;;;;;;;12.23;10.57;;;5.60;99.90;;;;;;5001364;28;20272;-75
2022/12/09 11:40:27;;;;;;;11.45;10.23;;;5.70;99.90;;;;;;5001314;28;20208;-74
2022/12/09 11:42:54;;;;;;;11.18;9.55;;;5.70;99.90;;;;;;5008275;28;20182;-74
2022/12/09 11:45:38;;;;;;;12.98;11.57;;;5.80;99.90;;;;;;5001089;28;20213;-74
2022/12/09 11:48:12;;;;;;;12.25;10.95;;;6.00;99.90;;;;;;5005580;28;20287;-75
2022/12/09 11:50:41;;;;;;;12.65;10.88;;;6.10;99.90;;;;;;5004865;28;20297;-75
2022/12/09 11:53:09;;;;;;;13.82;11.40;;;6.30;99.90;;;;;;5004428;28;20205;-74
2022/12/09 11:56:14;;;;;;;12.48;11.05;;;6.20;99.90;;;;;;5007374;28;20184;-74
2022/12/09 11:58:48;;;;;;;14.52;10.35;;;5.90;99.90;;;;;;4960078;28;21731;-75
2022/12/09 12:01:42;;;;;;;11.82;10.63;;;5.60;99.90;;;;;;4999963;28;20223;-74
2022/12/09 12:04:11;;;;;;;11.48;9.25;;;5.60;99.90;;;;;;5003503;28;20193;-75
2022/12/09 12:06:47;;;;;;;12.82;10.73;;;5.70;99.90;;;;;;5003144;28;20601;-74
2022/12/09 12:09:21;;;;;;;10.70;9.60;;;5.60;99.90;;;;;;5009030;28;20287;-76
2022/12/09 12:12:07;;;;;;;12.05;10.65;;;5.60;99.90;;;;;;5006336;28;20229;-76
2022/12/09 12:14:36;;;;;;;13.27;10.10;;;5.60;99.90;;;;;;5007130;28;20202;-74
2022/12/09 12:17:15;;;;;;;12.70;9.73;;;5.50;99.90;;;;;;5006609;28;20210;-75
2022/12/09 12:19:42;;;;;;;12.23;10.95;;;5.60;99.90;;;;;;5008144;28;20172;-78
2022/12/09 12:22:26;;;;;;;13.05;10.75;;;5.60;99.90;;;;;;5010176;28;20207;-75
2022/12/09 12:25:02;;;;;;;10.75;9.63;;;5.50;99.90;;;;;;5006245;28;20262;-74
2022/12/09 12:28:05;;;;;;;11.10;9.48;;;5.60;99.90;;;;;;5006762;28;20228;-77
2022/12/09 12:30:59;;;;;;;13.10;10.07;;;5.60;99.90;;;;;;4998868;28;20183;-76
2022/12/09 12:33:31;;;;;;;11.48;9.43;;;5.70;99.90;;;;;;4999837;28;20194;-75
2022/12/09 12:36:05;;;;;;;12.13;9.55;;;5.70;99.90;;;;;;5012062;28;20188;-75
2022/12/09 12:38:39;;;;;;;13.07;10.43;;;5.60;99.90;;;;;;4997245;28;20328;-75
2022/12/09 12:41:26;;;;;;;13.07;9.77;;;5.60;99.90;;;;;;5005677;28;20187;-76
2022/12/09 12:47:07;;;;;;;11.10;9.57;;;5.20;99.90;;;;;;5000091;28;20229;-76
2022/12/09 12:49:56;;;;;;;10.77;9.63;;;5.30;99.90;;;;;;4996441;28;20195;-76
2022/12/09 12:52:59;;;;;;;17.23;10.27;;;5.10;99.90;;;;;;4997651;28;20248;-76
2022/12/09 12:55:30;;;;;;;11.27;9.93;;;5.10;99.90;;;;;;5001644;28;20256;-75
2022/12/09 12:58:11;;;;;;;10.68;9.60;;;5.10;99.90;;;;;;5015211;28;20206;-75
2022/12/09 13:00:55;;;;;;;10.82;8.45;;;5.20;99.90;;;;;;5008873;28;20177;-75
2022/12/09 13:03:24;;;;;;;10.23;8.07;;;5.40;99.90;;;;;;5000869;28;20193;-75